sensor_id;sensor_type;location;lat;lon;timestamp;temperature;humidity
14521;DHT22;7347;50.844;4.490;2023-05-29T12:33:33;20.00;97.10
14521;DHT22;7347;50.844;4.490;2023-05-29T12:36:05;19.90;97.20
14521;DHT22;7347;50.844;4.490;2023-05-29T12:38:33;19.80;97.90
14521;DHT22;7347;50.844;4.490;2023-05-29T12:41:01;19.80;98.10
14521;DHT22;7347;50.844;4.490;2023-05-29T12:43:28;20.00;98.00
14521;DHT22;7347;50.844;4.490;2023-05-29T12:45:55;20.10;98.50
14521;DHT22;7347;50.844;4.490;2023-05-29T12:48:26;20.50;97.70
14521;DHT22;7347;50.844;4.490;2023-05-29T12:50:55;20.50;96.70
14521;DHT22;7347;50.844;4.490;2023-05-29T12:53:28;20.50;97.00
14521;DHT22;7347;50.844;4.490;2023-05-29T12:55:56;20.70;97.30
14521;DHT22;7347;50.844;4.490;2023-05-29T12:58:23;21.00;97.00
14521;DHT22;7347;50.844;4.490;2023-05-29T13:00:53;21.10;96.70
14521;DHT22;7347;50.844;4.490;2023-05-29T13:03:21;20.90;97.00
14521;DHT22;7347;50.844;4.490;2023-05-29T13:05:48;20.90;96.60
14521;DHT22;7347;50.844;4.490;2023-05-29T13:08:17;21.00;96.70
14521;DHT22;7347;50.844;4.490;2023-05-29T13:10:44;20.80;96.70
14521;DHT22;7347;50.844;4.490;2023-05-29T13:13:11;20.70;96.70
14521;DHT22;7347;50.844;4.490;2023-05-29T13:15:38;20.50;97.20
14521;DHT22;7347;50.844;4.490;2023-05-29T13:18:05;20.60;97.10
14521;DHT22;7347;50.844;4.490;2023-05-29T13:20:32;20.80;97.60
14521;DHT22;7347;50.844;4.490;2023-05-29T13:23:00;21.10;96.80
14521;DHT22;7347;50.844;4.490;2023-05-29T13:25:28;21.10;97.10
14521;DHT22;7347;50.844;4.490;2023-05-29T13:27:55;21.00;97.20
14521;DHT22;7347;50.844;4.490;2023-05-29T13:30:22;21.20;97.20
14521;DHT22;7347;50.844;4.490;2023-05-29T13:32:50;21.40;96.90
14521;DHT22;7347;50.844;4.490;2023-05-29T13:35:17;21.50;97.00
14521;DHT22;7347;50.844;4.490;2023-05-29T13:37:44;21.50;97.60
14521;DHT22;7347;50.844;4.490;2023-05-29T13:40:11;21.30;97.30
14521;DHT22;7347;50.844;4.490;2023-05-29T13:42:40;21.00;97.20
14521;DHT22;7347;50.844;4.490;2023-05-29T13:45:08;20.90;97.80
14521;DHT22;7347;50.844;4.490;2023-05-29T13:47:35;21.10;97.00
14521;DHT22;7347;50.844;4.490;2023-05-29T13:50:03;21.00;98.00
14521;DHT22;7347;50.844;4.490;2023-05-29T13:52:31;21.20;97.60
14521;DHT22;7347;50.844;4.490;2023-05-29T13:54:58;21.20;97.20
14521;DHT22;7347;50.844;4.490;2023-05-29T13:57:27;21.20;96.90
14521;DHT22;7347;50.844;4.490;2023-05-29T13:59:56;21.30;96.70
14521;DHT22;7347;50.844;4.490;2023-05-29T14:02:23;21.20;96.60
14521;DHT22;7347;50.844;4.490;2023-05-29T14:04:50;21.20;97.20
14521;DHT22;7347;50.844;4.490;2023-05-29T14:07:17;21.20;97.20
14521;DHT22;7347;50.844;4.490;2023-05-29T14:09:44;21.20;97.10
14521;DHT22;7347;50.844;4.490;2023-05-29T14:12:11;21.10;97.40
14521;DHT22;7347;50.844;4.490;2023-05-29T14:14:37;21.00;96.80
14521;DHT22;7347;50.844;4.490;2023-05-29T14:17:06;21.20;97.30
14521;DHT22;7347;50.844;4.490;2023-05-29T14:19:34;21.20;96.80
14521;DHT22;7347;50.844;4.490;2023-05-29T14:22:01;21.00;96.90
14521;DHT22;7347;50.844;4.490;2023-05-29T14:24:28;21.10;97.00
14521;DHT22;7347;50.844;4.490;2023-05-29T14:26:55;21.20;97.00
14521;DHT22;7347;50.844;4.490;2023-05-29T14:29:21;21.30;97.00
14521;DHT22;7347;50.844;4.490;2023-05-29T14:31:48;21.30;96.30
14521;DHT22;7347;50.844;4.490;2023-05-29T14:34:16;21.40;96.80
14521;DHT22;7347;50.844;4.490;2023-05-29T14:36:43;21.10;96.50
14521;DHT22;7347;50.844;4.490;2023-05-29T14:39:11;21.00;97.10
14521;DHT22;7347;50.844;4.490;2023-05-29T14:41:38;21.10;97.00
14521;DHT22;7347;50.844;4.490;2023-05-29T14:44:05;21.10;96.90
14521;DHT22;7347;50.844;4.490;2023-05-29T14:46:32;21.20;97.20
14521;DHT22;7347;50.844;4.490;2023-05-29T14:48:59;21.30;97.10
14521;DHT22;7347;50.844;4.490;2023-05-29T14:51:27;21.30;96.80
14521;DHT22;7347;50.844;4.490;2023-05-29T14:53:54;21.30;96.80
14521;DHT22;7347;50.844;4.490;2023-05-29T14:56:21;21.00;97.00
14521;DHT22;7347;50.844;4.490;2023-05-29T14:58:48;21.10;97.00
14521;DHT22;7347;50.844;4.490;2023-05-29T15:01:15;21.30;96.80
14521;DHT22;7347;50.844;4.490;2023-05-29T15:03:42;21.20;96.30
14521;DHT22;7347;50.844;4.490;2023-05-29T15:06:09;21.20;96.50
14521;DHT22;7347;50.844;4.490;2023-05-29T15:08:38;21.10;96.60
14521;DHT22;7347;50.844;4.490;2023-05-29T15:11:07;21.20;96.80
14521;DHT22;7347;50.844;4.490;2023-05-29T15:13:35;21.10;96.40
14521;DHT22;7347;50.844;4.490;2023-05-29T15:16:01;21.20;96.50
14521;DHT22;7347;50.844;4.490;2023-05-29T15:18:29;21.00;96.70
14521;DHT22;7347;50.844;4.490;2023-05-29T15:20:56;21.00;97.00
14521;DHT22;7347;50.844;4.490;2023-05-29T15:23:24;21.00;97.20
14521;DHT22;7347;50.844;4.490;2023-05-29T15:25:53;21.10;96.90
14521;DHT22;7347;50.844;4.490;2023-05-29T15:28:20;21.00;97.20
14521;DHT22;7347;50.844;4.490;2023-05-29T15:30:47;21.20;96.90
14521;DHT22;7347;50.844;4.490;2023-05-29T15:33:13;21.00;96.90
14521;DHT22;7347;50.844;4.490;2023-05-29T15:35:41;20.90;96.30
14521;DHT22;7347;50.844;4.490;2023-05-29T15:38:08;20.80;96.40
14521;DHT22;7347;50.844;4.490;2023-05-29T15:40:35;20.80;96.50
14521;DHT22;7347;50.844;4.490;2023-05-29T15:43:03;20.80;97.00
14521;DHT22;7347;50.844;4.490;2023-05-29T15:45:30;20.80;96.80
14521;DHT22;7347;50.844;4.490;2023-05-29T15:47:57;20.80;96.10
14521;DHT22;7347;50.844;4.490;2023-05-29T15:50:24;20.60;96.50
14521;DHT22;7347;50.844;4.490;2023-05-29T15:52:51;20.70;96.70
14521;DHT22;7347;50.844;4.490;2023-05-29T15:55:18;20.80;96.60
14521;DHT22;7347;50.844;4.490;2023-05-29T15:57:45;20.90;95.80
14521;DHT22;7347;50.844;4.490;2023-05-29T16:00:15;20.60;96.40
14521;DHT22;7347;50.844;4.490;2023-05-29T16:02:42;20.40;96.30
14521;DHT22;7347;50.844;4.490;2023-05-29T16:05:09;20.20;96.70
14521;DHT22;7347;50.844;4.490;2023-05-29T16:07:36;20.10;97.30
14521;DHT22;7347;50.844;4.490;2023-05-29T16:10:04;20.20;97.20
14521;DHT22;7347;50.844;4.490;2023-05-29T16:12:31;20.40;96.60
14521;DHT22;7347;50.844;4.490;2023-05-29T16:14:58;20.60;96.90
14521;DHT22;7347;50.844;4.490;2023-05-29T16:17:26;20.70;96.20
14521;DHT22;7347;50.844;4.490;2023-05-29T16:19:53;20.50;96.10
14521;DHT22;7347;50.844;4.490;2023-05-29T16:22:21;20.30;96.10
14521;DHT22;7347;50.844;4.490;2023-05-29T16:24:48;20.10;96.00
14521;DHT22;7347;50.844;4.490;2023-05-29T16:27:15;20.00;96.60
14521;DHT22;7347;50.844;4.490;2023-05-29T16:29:42;19.90;96.70
14521;DHT22;7347;50.844;4.490;2023-05-29T16:32:09;19.70;96.40
14521;DHT22;7347;50.844;4.490;2023-05-29T16:34:37;19.60;96.20
14521;DHT22;7347;50.844;4.490;2023-05-29T16:37:05;19.60;95.60
14521;DHT22;7347;50.844;4.490;2023-05-29T16:39:34;19.50;94.60
14521;DHT22;7347;50.844;4.490;2023-05-29T16:42:01;19.60;94.20
14521;DHT22;7347;50.844;4.490;2023-05-29T16:44:27;19.50;93.70
14521;DHT22;7347;50.844;4.490;2023-05-29T16:46:54;19.50;94.00
14521;DHT22;7347;50.844;4.490;2023-05-29T16:49:21;19.40;94.20
14521;DHT22;7347;50.844;4.490;2023-05-29T16:51:50;19.50;94.20
14521;DHT22;7347;50.844;4.490;2023-05-29T16:54:16;19.40;94.40
14521;DHT22;7347;50.844;4.490;2023-05-29T16:56:43;19.40;94.30
14521;DHT22;7347;50.844;4.490;2023-05-29T16:59:10;19.30;94.70
14521;DHT22;7347;50.844;4.490;2023-05-29T17:01:37;19.10;94.30
14521;DHT22;7347;50.844;4.490;2023-05-29T17:04:04;19.00;93.20
14521;DHT22;7347;50.844;4.490;2023-05-29T17:06:33;18.90;93.60
14521;DHT22;7347;50.844;4.490;2023-05-29T17:09:01;19.00;93.40
14521;DHT22;7347;50.844;4.490;2023-05-29T17:11:29;19.00;93.90
14521;DHT22;7347;50.844;4.490;2023-05-29T17:13:55;18.90;93.00
14521;DHT22;7347;50.844;4.490;2023-05-29T17:16:22;18.90;93.10
14521;DHT22;7347;50.844;4.490;2023-05-29T17:18:49;19.00;93.40
14521;DHT22;7347;50.844;4.490;2023-05-29T17:21:16;19.00;93.30
14521;DHT22;7347;50.844;4.490;2023-05-29T17:23:43;18.80;93.60
14521;DHT22;7347;50.844;4.490;2023-05-29T17:26:12;18.90;94.00
14521;DHT22;7347;50.844;4.490;2023-05-29T17:28:39;19.10;94.30
14521;DHT22;7347;50.844;4.490;2023-05-29T17:31:06;19.10;93.90
14521;DHT22;7347;50.844;4.490;2023-05-29T17:33:32;19.00;94.40
14521;DHT22;7347;50.844;4.490;2023-05-29T17:35:59;19.00;94.10
14521;DHT22;7347;50.844;4.490;2023-05-29T17:38:26;19.00;94.40
14521;DHT22;7347;50.844;4.490;2023-05-29T17:40:53;19.00;93.90
14521;DHT22;7347;50.844;4.490;2023-05-29T17:43:21;19.10;93.80
14521;DHT22;7347;50.844;4.490;2023-05-29T17:45:49;19.10;94.10
14521;DHT22;7347;50.844;4.490;2023-05-29T17:48:18;19.00;94.40
14521;DHT22;7347;50.844;4.490;2023-05-29T17:50:45;18.90;94.50
14521;DHT22;7347;50.844;4.490;2023-05-29T17:53:11;18.90;94.30
14521;DHT22;7347;50.844;4.490;2023-05-29T17:55:39;18.90;94.20
14521;DHT22;7347;50.844;4.490;2023-05-29T17:58:05;18.90;94.40
14521;DHT22;7347;50.844;4.490;2023-05-29T18:00:35;18.90;94.20
14521;DHT22;7347;50.844;4.490;2023-05-29T18:03:03;18.80;94.20
14521;DHT22;7347;50.844;4.490;2023-05-29T18:05:29;18.80;94.40
14521;DHT22;7347;50.844;4.490;2023-05-29T18:07:56;18.70;94.50
14521;DHT22;7347;50.844;4.490;2023-05-29T18:10:24;18.60;94.70
14521;DHT22;7347;50.844;4.490;2023-05-29T18:12:51;18.50;95.00
14521;DHT22;7347;50.844;4.490;2023-05-29T18:15:18;18.50;94.70
14521;DHT22;7347;50.844;4.490;2023-05-29T18:17:46;18.50;94.50
14521;DHT22;7347;50.844;4.490;2023-05-29T18:20:13;18.60;94.30
14521;DHT22;7347;50.844;4.490;2023-05-29T18:22:42;18.50;94.20
14521;DHT22;7347;50.844;4.490;2023-05-29T18:25:09;18.50;94.10
14521;DHT22;7347;50.844;4.490;2023-05-29T18:27:36;18.30;94.30
14521;DHT22;7347;50.844;4.490;2023-05-29T18:30:03;18.20;94.50
14521;DHT22;7347;50.844;4.490;2023-05-29T18:32:33;18.20;94.40
14521;DHT22;7347;50.844;4.490;2023-05-29T18:35:02;18.30;94.60
14521;DHT22;7347;50.844;4.490;2023-05-29T18:37:29;18.40;94.50
14521;DHT22;7347;50.844;4.490;2023-05-29T18:39:56;18.40;94.00
14521;DHT22;7347;50.844;4.490;2023-05-29T18:42:23;18.30;94.10
14521;DHT22;7347;50.844;4.490;2023-05-29T18:44:50;18.30;93.80
14521;DHT22;7347;50.844;4.490;2023-05-29T18:47:17;18.20;93.60
14521;DHT22;7347;50.844;4.490;2023-05-29T18:49:44;18.10;94.10
14521;DHT22;7347;50.844;4.490;2023-05-29T18:52:12;18.10;94.40
14521;DHT22;7347;50.844;4.490;2023-05-29T18:54:39;18.00;93.80
14521;DHT22;7347;50.844;4.490;2023-05-29T18:57:06;18.00;93.80
14521;DHT22;7347;50.844;4.490;2023-05-29T18:59:34;17.90;93.60
14521;DHT22;7347;50.844;4.490;2023-05-29T19:02:01;17.90;93.60
14521;DHT22;7347;50.844;4.490;2023-05-29T19:04:28;17.80;93.60
14521;DHT22;7347;50.844;4.490;2023-05-29T19:06:55;17.80;93.70
14521;DHT22;7347;50.844;4.490;2023-05-29T19:09:23;17.70;93.70
14521;DHT22;7347;50.844;4.490;2023-05-29T19:11:51;17.70;93.80
14521;DHT22;7347;50.844;4.490;2023-05-29T19:14:18;17.60;94.00
14521;DHT22;7347;50.844;4.490;2023-05-29T19:16:44;17.50;94.20
14521;DHT22;7347;50.844;4.490;2023-05-29T19:19:11;17.40;94.10
14521;DHT22;7347;50.844;4.490;2023-05-29T19:21:38;17.50;93.90
14521;DHT22;7347;50.844;4.490;2023-05-29T19:24:06;17.60;93.80
14521;DHT22;7347;50.844;4.490;2023-05-29T19:26:35;17.60;93.90
14521;DHT22;7347;50.844;4.490;2023-05-29T19:29:02;17.40;94.20
14521;DHT22;7347;50.844;4.490;2023-05-29T19:31:28;17.20;94.30
14521;DHT22;7347;50.844;4.490;2023-05-29T19:33:55;17.40;94.10
14521;DHT22;7347;50.844;4.490;2023-05-29T19:36:22;17.50;94.10
14521;DHT22;7347;50.844;4.490;2023-05-29T19:38:49;17.30;94.30
14521;DHT22;7347;50.844;4.490;2023-05-29T19:41:17;17.20;94.40
14521;DHT22;7347;50.844;4.490;2023-05-29T19:43:45;17.10;94.50
14521;DHT22;7347;50.844;4.490;2023-05-29T19:46:12;17.10;94.60
14521;DHT22;7347;50.844;4.490;2023-05-29T19:48:39;16.90;94.70
14521;DHT22;7347;50.844;4.490;2023-05-29T19:51:06;16.90;94.90
14521;DHT22;7347;50.844;4.490;2023-05-29T19:53:34;16.90;94.90
14521;DHT22;7347;50.844;4.490;2023-05-29T19:56:02;16.60;95.00
14521;DHT22;7347;50.844;4.490;2023-05-29T19:58:29;16.40;95.30
14521;DHT22;7347;50.844;4.490;2023-05-29T20:00:57;16.40;95.50
14521;DHT22;7347;50.844;4.490;2023-05-29T20:03:24;16.50;95.40
14521;DHT22;7347;50.844;4.490;2023-05-29T20:05:54;16.60;95.30
14521;DHT22;7347;50.844;4.490;2023-05-29T20:08:21;16.50;95.50
14521;DHT22;7347;50.844;4.490;2023-05-29T20:10:48;16.40;95.70
14521;DHT22;7347;50.844;4.490;2023-05-29T20:13:15;16.40;96.00
14521;DHT22;7347;50.844;4.490;2023-05-29T20:15:42;16.50;96.30
14521;DHT22;7347;50.844;4.490;2023-05-29T20:18:10;16.30;96.90
14521;DHT22;7347;50.844;4.490;2023-05-29T20:20:37;16.30;97.30
14521;DHT22;7347;50.844;4.490;2023-05-29T20:23:04;16.20;97.60
14521;DHT22;7347;50.844;4.490;2023-05-29T20:25:31;16.20;97.90
14521;DHT22;7347;50.844;4.490;2023-05-29T20:27:58;16.20;98.00
14521;DHT22;7347;50.844;4.490;2023-05-29T20:30:25;15.90;98.50
14521;DHT22;7347;50.844;4.490;2023-05-29T20:32:52;15.80;98.70
14521;DHT22;7347;50.844;4.490;2023-05-29T20:35:20;15.80;98.70
14521;DHT22;7347;50.844;4.490;2023-05-29T20:37:47;15.60;98.90
14521;DHT22;7347;50.844;4.490;2023-05-29T20:40:17;15.60;99.00
14521;DHT22;7347;50.844;4.490;2023-05-29T20:42:45;15.40;99.00
14521;DHT22;7347;50.844;4.490;2023-05-29T20:45:12;15.40;99.10
14521;DHT22;7347;50.844;4.490;2023-05-29T20:47:40;15.30;99.20
14521;DHT22;7347;50.844;4.490;2023-05-29T20:50:09;15.30;99.10
14521;DHT22;7347;50.844;4.490;2023-05-29T20:52:38;15.40;99.00
14521;DHT22;7347;50.844;4.490;2023-05-29T20:55:05;15.60;98.80
14521;DHT22;7347;50.844;4.490;2023-05-29T20:57:32;15.60;99.20
14521;DHT22;7347;50.844;4.490;2023-05-29T20:59:59;15.50;99.80
14521;DHT22;7347;50.844;4.490;2023-05-29T21:02:26;15.50;99.90
14521;DHT22;7347;50.844;4.490;2023-05-29T21:04:53;15.40;99.90
14521;DHT22;7347;50.844;4.490;2023-05-29T21:07:20;15.30;99.90
14521;DHT22;7347;50.844;4.490;2023-05-29T21:09:48;15.30;99.90
14521;DHT22;7347;50.844;4.490;2023-05-29T21:12:15;15.40;99.90
14521;DHT22;7347;50.844;4.490;2023-05-29T21:14:42;15.20;99.90
14521;DHT22;7347;50.844;4.490;2023-05-29T21:17:09;15.30;99.90
14521;DHT22;7347;50.844;4.490;2023-05-29T21:19:36;15.20;99.90
14521;DHT22;7347;50.844;4.490;2023-05-29T21:22:04;15.10;99.90
14521;DHT22;7347;50.844;4.490;2023-05-29T21:24:31;14.90;99.90
14521;DHT22;7347;50.844;4.490;2023-05-29T21:26:59;14.90;99.90
14521;DHT22;7347;50.844;4.490;2023-05-29T21:29:27;14.80;99.90
14521;DHT22;7347;50.844;4.490;2023-05-29T21:31:53;14.60;99.90
14521;DHT22;7347;50.844;4.490;2023-05-29T21:34:22;14.60;99.90
14521;DHT22;7347;50.844;4.490;2023-05-29T21:36:49;14.50;99.90
